Language: 


Des rapports , des résumés tant et plus, au choix de chacun....


Données statistiques de la station
Quotidien Rapport Juin 14, 2017 Unités:  Métrique    Anglais   les deux
« Précédent Jour
Suivant Jour »
Quotidien Hebdomadaire Mensuel Annuel Actuel
  Haut: Bas: Moyen:
Température: 30.2 °C 0.0 °C 21.4 °C
Pt de rosée: 15.0 °C 9.0 °C 12.2 °C
Humidité: 93 % 0 % 58 %
Vitesse du vent: 15.8 km/h 0.0 km/h 3.9 km/h
Rafales: 16.9 km/h - -
Vent:- - ESE
Pression: 1019.9 hPa 0.0 hPa -
Précipitation: 0.0 mm    
Historical Graphs
 
 
Données statistiques pour Juin 14, 2017
Heure Température Point de rosée Pression Vent Vitesse du vent Refales Humidité Pluie (taux horaire)
00:00 14.8 °C 10.0 °C 1018.2 hPa Calm   5.5 km/h 71 % 0.0 mm
00:05 14.7 °C 10.0 °C 1018.2 hPa NNE 2.6 km/h 4.7 km/h 71 % 0.0 mm
00:09 14.6 °C 10.0 °C 1018.8 hPa Calm   4.7 km/h 71 % 0.0 mm
00:14 14.5 °C 10.0 °C 1018.8 hPa NNE 5.0 km/h 6.1 km/h 73 % 0.0 mm
00:19 14.5 °C 10.0 °C 1018.8 hPa North 2.1 km/h 6.1 km/h 73 % 0.0 mm
00:24 14.4 °C 10.0 °C 1018.8 hPa Calm   5.0 km/h 73 % 0.0 mm
00:29 14.4 °C 10.0 °C 1018.8 hPa Calm   3.2 km/h 73 % 0.0 mm
00:34 14.3 °C 10.0 °C 1018.8 hPa Calm   3.2 km/h 73 % 0.0 mm
00:39 14.2 °C 10.0 °C 1018.2 hPa Calm   5.5 km/h 73 % 0.0 mm
00:44 14.1 °C 10.0 °C 1018.2 hPa North 4.0 km/h 5.5 km/h 74 % 0.0 mm
00:49 14.0 °C 9.0 °C 1018.2 hPa Calm   4.3 km/h 73 % 0.0 mm
00:54 13.9 °C 10.0 °C 1018.8 hPa North 4.0 km/h 4.0 km/h 74 % 0.0 mm
00:59 13.9 °C 10.0 °C 1018.8 hPa Calm   5.8 km/h 74 % 0.0 mm
01:04 13.8 °C 10.0 °C 1018.8 hPa Calm   5.8 km/h 75 % 0.0 mm
01:09 13.8 °C 10.0 °C 1018.8 hPa Calm   4.0 km/h 75 % 0.0 mm
01:14 13.6 °C 10.0 °C 1018.8 hPa Calm   4.0 km/h 75 % 0.0 mm
01:19 13.5 °C 10.0 °C 1018.8 hPa Calm     75 % 0.0 mm
01:24 13.5 °C 10.0 °C 1018.2 hPa Calm     75 % 0.0 mm
01:29 13.5 °C 10.0 °C 1018.2 hPa North 4.0 km/h 6.1 km/h 76 % 0.0 mm
01:34 13.5 °C 10.0 °C 1018.2 hPa North 1.4 km/h 6.1 km/h 77 % 0.0 mm
01:39 13.5 °C 10.0 °C 1018.2 hPa NE 6.1 km/h 6.1 km/h 78 % 0.0 mm
01:44 13.4 °C 10.0 °C 1018.2 hPa Calm   7.9 km/h 77 % 0.0 mm
01:49 13.3 °C 10.0 °C 1018.2 hPa NNE 5.0 km/h 7.9 km/h 77 % 0.0 mm
01:54 13.3 °C 10.0 °C 1018.8 hPa Calm   6.4 km/h 78 % 0.0 mm
01:59 13.2 °C 10.0 °C 1018.8 hPa Calm   6.4 km/h 79 % 0.0 mm
02:04 13.2 °C 10.0 °C 1018.8 hPa Calm   5.0 km/h 79 % 0.0 mm
02:09 13.1 °C 10.0 °C 1019.9 hPa Calm   6.4 km/h 79 % 0.0 mm
02:14 13.1 °C 10.0 °C 1019.9 hPa NE 4.0 km/h 6.4 km/h 80 % 0.0 mm
02:19 13.1 °C 10.0 °C 1019.9 hPa Calm   6.4 km/h 80 % 0.0 mm
02:24 13.0 °C 10.0 °C 1018.8 hPa NNE 1.4 km/h 6.4 km/h 80 % 0.0 mm
02:30 12.9 °C 10.0 °C 1018.8 hPa Calm   6.4 km/h 81 % 0.0 mm
02:35 12.8 °C 10.0 °C 1018.8 hPa Calm   4.7 km/h 80 % 0.0 mm
02:40 12.7 °C 10.0 °C 1018.8 hPa Calm   4.7 km/h 80 % 0.0 mm
02:45 12.6 °C 10.0 °C 1018.8 hPa Calm   3.2 km/h 80 % 0.0 mm
02:50 12.5 °C 10.0 °C 1018.8 hPa Calm   1.4 km/h 81 % 0.0 mm
02:55 12.4 °C 9.0 °C 1018.8 hPa Calm   1.4 km/h 81 % 0.0 mm
03:00 12.3 °C 9.0 °C 1018.8 hPa Calm     81 % 0.0 mm
03:05 12.2 °C 9.0 °C 1018.8 hPa Calm   1.4 km/h 82 % 0.0 mm
03:10 12.1 °C 9.0 °C 1018.8 hPa Calm     82 % 0.0 mm
03:15 12.1 °C 9.0 °C 1018.8 hPa NNE 4.0 km/h 5.5 km/h 82 % 0.0 mm
03:20 12.1 °C 9.0 °C 1018.8 hPa Calm   5.5 km/h 83 % 0.0 mm
03:25 12.2 °C 10.0 °C 1018.8 hPa Calm   5.8 km/h 84 % 0.0 mm
03:30 12.2 °C 10.0 °C 1018.8 hPa Calm   6.1 km/h 85 % 0.0 mm
03:35 12.2 °C 10.0 °C 1018.8 hPa Calm   6.1 km/h 85 % 0.0 mm
03:45 12.0 °C 10.0 °C 1018.8 hPa NE 3.2 km/h 9.0 km/h 85 % 0.0 mm
03:50 12.0 °C 10.0 °C 1018.8 hPa NNW 4.7 km/h 9.0 km/h 85 % 0.0 mm
03:55 11.9 °C 10.0 °C 1018.8 hPa NNE 5.5 km/h 6.9 km/h 86 % 0.0 mm
04:00 12.0 °C 10.0 °C 1018.8 hPa Calm   6.9 km/h 86 % 0.0 mm
04:05 12.0 °C 10.0 °C 1018.8 hPa North 5.8 km/h 6.9 km/h 87 % 0.0 mm
04:08 12.0 °C 10.0 °C 1018.8 hPa Calm   6.9 km/h 87 % 0.0 mm
04:13 12.0 °C 10.0 °C 1018.8 hPa Calm   6.9 km/h 88 % 0.0 mm
04:18 12.0 °C 10.0 °C 1018.8 hPa Calm   6.9 km/h 87 % 0.0 mm
04:23 11.9 °C 10.0 °C 1018.8 hPa Calm   6.9 km/h 87 % 0.0 mm
04:28 11.9 °C 10.0 °C 1018.8 hPa Calm   4.7 km/h 86 % 0.0 mm
04:33 11.8 °C 9.0 °C 1018.8 hPa North 5.0 km/h 5.8 km/h 86 % 0.0 mm
04:38 11.8 °C 10.0 °C 1018.8 hPa Calm   5.8 km/h 88 % 0.0 mm
04:43 11.8 °C 10.0 °C 1018.8 hPa NE 6.1 km/h 6.1 km/h 88 % 0.0 mm
04:48 11.8 °C 10.0 °C 1018.8 hPa Calm   6.1 km/h 88 % 0.0 mm
04:53 11.8 °C 10.0 °C 1018.8 hPa Calm   4.7 km/h 88 % 0.0 mm
04:58 11.8 °C 10.0 °C 1018.8 hPa North 6.1 km/h 6.1 km/h 88 % 0.0 mm
05:03 11.7 °C 10.0 °C 1018.8 hPa NE 5.5 km/h 6.1 km/h 88 % 0.0 mm
05:08 11.7 °C 10.0 °C 1018.8 hPa North 6.4 km/h 6.4 km/h 90 % 0.0 mm
05:13 11.7 °C 10.0 °C 1018.8 hPa NNE 5.8 km/h 6.9 km/h 90 % 0.0 mm
05:18 11.6 °C 10.0 °C 1018.8 hPa NNE 4.3 km/h 7.6 km/h 90 % 0.0 mm
05:23 11.6 °C 10.0 °C 1018.8 hPa Calm   7.6 km/h 91 % 0.0 mm
05:28 11.5 °C 10.0 °C 1018.8 hPa Calm   5.8 km/h 90 % 0.0 mm
05:33 11.4 °C 10.0 °C 1018.8 hPa Calm   4.7 km/h 89 % 0.0 mm
05:38 11.4 °C 10.0 °C 1018.8 hPa Calm   4.7 km/h 89 % 0.0 mm
05:44 11.3 °C 10.0 °C 1018.8 hPa Calm   4.7 km/h 90 % 0.0 mm
05:49 11.3 °C 10.0 °C 1018.8 hPa NNE 4.3 km/h 5.0 km/h 90 % 0.0 mm
05:54 11.4 °C 10.0 °C 1018.8 hPa Calm   6.4 km/h 91 % 0.0 mm
05:59 11.4 °C 10.0 °C 1018.8 hPa Calm   6.4 km/h 91 % 0.0 mm
06:04 11.5 °C 10.0 °C 1018.8 hPa North 6.9 km/h 6.9 km/h 92 % 0.0 mm
06:09 11.6 °C 10.0 °C 1018.8 hPa NNE 5.5 km/h 6.9 km/h 92 % 0.0 mm
06:14 11.8 °C 11.0 °C 1018.8 hPa Calm   6.9 km/h 93 % 0.0 mm
06:19 12.0 °C 11.0 °C 1018.8 hPa North 3.2 km/h 6.9 km/h 92 % 0.0 mm
06:24 12.2 °C 11.0 °C 1018.8 hPa North 5.8 km/h 6.1 km/h 92 % 0.0 mm
06:29 12.4 °C 11.0 °C 1018.8 hPa NNE 4.3 km/h 6.4 km/h 92 % 0.0 mm
06:34 12.5 °C 12.0 °C 1018.8 hPa NNE 4.0 km/h 6.4 km/h 91 % 0.0 mm
06:39 12.7 °C 12.0 °C 1018.8 hPa Calm   6.4 km/h 91 % 0.0 mm
06:44 13.0 °C 12.0 °C 1018.8 hPa NNE 2.6 km/h 6.9 km/h 91 % 0.0 mm
06:49 13.2 °C 12.0 °C 1018.8 hPa NE 4.7 km/h 6.9 km/h 91 % 0.0 mm
06:54 13.4 °C 12.0 °C 1018.2 hPa Calm   8.7 km/h 91 % 0.0 mm
06:59 13.7 °C 12.0 °C 1018.2 hPa NE 2.6 km/h 8.7 km/h 90 % 0.0 mm
07:04 14.0 °C 13.0 °C 1018.2 hPa Calm   6.1 km/h 90 % 0.0 mm
07:09 14.4 °C 13.0 °C 1018.8 hPa Calm   5.8 km/h 89 % 0.0 mm
07:14 14.7 °C 13.0 °C 1018.8 hPa Calm   5.8 km/h 88 % 0.0 mm
07:19 15.0 °C 13.0 °C 1018.8 hPa NE 4.0 km/h 5.8 km/h 88 % 0.0 mm
07:24 15.4 °C 13.0 °C 1018.8 hPa NNE 2.1 km/h 5.8 km/h 87 % 0.0 mm
07:30 15.8 °C 13.0 °C 1018.8 hPa ENE 2.6 km/h 6.9 km/h 86 % 0.0 mm
07:35 16.1 °C 14.0 °C 1018.8 hPa NNE 6.9 km/h 6.9 km/h 85 % 0.0 mm
07:40 16.4 °C 14.0 °C 1018.8 hPa NE 4.3 km/h 7.9 km/h 84 % 0.0 mm
07:45 16.7 °C 14.0 °C 1018.8 hPa NE 6.4 km/h 7.9 km/h 83 % 0.0 mm
07:50 17.0 °C 14.0 °C 1018.8 hPa NE 10.5 km/h 10.5 km/h 80 % 0.0 mm
07:55 17.1 °C 14.0 °C 1018.8 hPa NE 9.7 km/h 10.5 km/h 80 % 0.0 mm
08:00 17.5 °C 14.0 °C 1018.8 hPa NE 4.7 km/h 9.7 km/h 78 % 0.0 mm
08:05 17.8 °C 14.0 °C 1018.8 hPa NE 1.4 km/h 9.7 km/h 78 % 0.0 mm
08:10 18.1 °C 14.0 °C 1018.8 hPa NNE 7.9 km/h 9.3 km/h 76 % 0.0 mm
08:15 18.4 °C 14.0 °C 1018.8 hPa ENE 7.6 km/h 9.7 km/h 74 % 0.0 mm
08:20 18.8 °C 14.0 °C 1018.8 hPa NE 6.9 km/h 9.7 km/h 74 % 0.0 mm
08:25 19.1 °C 14.0 °C 1018.2 hPa ENE 5.5 km/h 8.7 km/h 73 % 0.0 mm
08:30 19.4 °C 14.0 °C 1018.2 hPa ENE 8.7 km/h 8.7 km/h 72 % 0.0 mm
08:35 19.7 °C 14.0 °C 1018.2 hPa ENE 6.4 km/h 8.7 km/h 71 % 0.0 mm
08:40 19.9 °C 14.0 °C 1018.2 hPa NE 5.5 km/h 8.7 km/h 70 % 0.0 mm
08:45 20.3 °C 15.0 °C 1018.2 hPa ENE 5.0 km/h 8.7 km/h 70 % 0.0 mm
08:50 20.5 °C 15.0 °C 1018.2 hPa East 9.0 km/h 10.1 km/h 68 % 0.0 mm
08:55 20.8 °C 14.0 °C 1018.2 hPa East 6.4 km/h 10.1 km/h 67 % 0.0 mm
09:00 21.2 °C 15.0 °C 1018.2 hPa NE 7.6 km/h 9.3 km/h 66 % 0.0 mm
09:05 21.5 °C 15.0 °C 1018.2 hPa Calm   9.0 km/h 65 % 0.0 mm
09:10 21.6 °C 15.0 °C 1018.2 hPa ESE 3.5 km/h 10.5 km/h 64 % 0.0 mm
09:15 21.8 °C 14.0 °C 1018.2 hPa ENE 5.0 km/h 10.5 km/h 63 % 0.0 mm
09:20 22.1 °C 14.0 °C 1018.2 hPa Calm   10.5 km/h 62 % 0.0 mm
09:25 22.5 °C 15.0 °C 1018.8 hPa Calm   10.1 km/h 62 % 0.0 mm
09:30 22.7 °C 15.0 °C 1018.8 hPa Calm   7.6 km/h 60 % 0.0 mm
09:35 23.0 °C 15.0 °C 1018.8 hPa ESE 2.6 km/h 7.6 km/h 60 % 0.0 mm
09:40 23.3 °C 15.0 °C 1018.2 hPa SSE 4.3 km/h 9.3 km/h 59 % 0.0 mm
09:45 23.5 °C 15.0 °C 1018.2 hPa ESE 9.0 km/h 9.7 km/h 57 % 0.0 mm
09:50 23.5 °C 14.0 °C 1018.2 hPa SE 5.0 km/h 9.7 km/h 55 % 0.0 mm
09:55 23.8 °C 14.0 °C 1018.2 hPa ESE 7.9 km/h 10.1 km/h 54 % 0.0 mm
10:00 24.0 °C 14.0 °C 1018.2 hPa ENE 6.9 km/h 10.1 km/h 52 % 0.0 mm
10:06 24.2 °C 14.0 °C 1018.2 hPa ESE 5.8 km/h 10.1 km/h 52 % 0.0 mm
10:11 24.4 °C 13.0 °C 1018.2 hPa ENE 6.9 km/h 10.1 km/h 50 % 0.0 mm
10:21 24.3 °C 13.0 °C 1018.2 hPa East 8.7 km/h 13.7 km/h 49 % 0.0 mm
10:26 24.4 °C 13.0 °C 1018.2 hPa NE 8.7 km/h 10.5 km/h 48 % 0.0 mm
10:31 24.5 °C 13.0 °C 1018.2 hPa ENE 9.0 km/h 10.5 km/h 48 % 0.0 mm
10:36 25.0 °C 13.0 °C 1018.2 hPa SE 9.0 km/h 9.3 km/h 48 % 0.0 mm
10:41 25.3 °C 13.0 °C 1018.2 hPa NE 5.0 km/h 9.3 km/h 47 % 0.0 mm
10:46 24.9 °C 13.0 °C 1018.2 hPa ENE 9.0 km/h 11.9 km/h 46 % 0.0 mm
10:51 24.9 °C 13.0 °C 1018.2 hPa NE 11.9 km/h 14.0 km/h 45 % 0.0 mm
10:56 25.1 °C 13.0 °C 1018.2 hPa East 6.4 km/h 14.0 km/h 45 % 0.0 mm
11:01 25.0 °C 12.0 °C 1018.2 hPa NE 9.7 km/h 14.0 km/h 44 % 0.0 mm
11:06 25.3 °C 13.0 °C 1018.2 hPa East 6.1 km/h 13.7 km/h 44 % 0.0 mm
11:11 25.4 °C 13.0 °C 1018.2 hPa East 1.8 km/h 13.7 km/h 44 % 0.0 mm
11:16 25.5 °C 13.0 °C 1018.2 hPa ENE 4.7 km/h 10.1 km/h 44 % 0.0 mm
11:21 25.5 °C 13.0 °C 1018.2 hPa ESE 9.3 km/h 13.7 km/h 44 % 0.0 mm
11:26 25.8 °C 12.0 °C 1018.2 hPa ESE 9.3 km/h 15.1 km/h 43 % 0.0 mm
11:31 25.9 °C 13.0 °C 1018.2 hPa East 5.8 km/h 15.1 km/h 43 % 0.0 mm
11:36 26.0 °C 12.0 °C 1018.2 hPa ESE 6.4 km/h 10.5 km/h 42 % 0.0 mm
11:41 26.3 °C 13.0 °C 1018.2 hPa SE 10.5 km/h 10.5 km/h 42 % 0.0 mm
11:46 26.4 °C 13.0 °C 1018.2 hPa East 10.8 km/h 11.9 km/h 42 % 0.0 mm
11:51 26.7 °C 13.0 °C 1018.2 hPa East 4.0 km/h 11.9 km/h 42 % 0.0 mm
11:56 26.7 °C 13.0 °C 1018.2 hPa Calm   10.8 km/h 42 % 0.0 mm
12:01 26.8 °C 13.0 °C 1018.2 hPa ESE 6.9 km/h 13.7 km/h 42 % 0.0 mm
12:02 26.6 °C 13.0 °C 1018.2 hPa ESE 10.5 km/h 13.7 km/h 41 % 0.0 mm
12:07 26.8 °C 13.0 °C 1018.2 hPa ESE 10.1 km/h 13.7 km/h 41 % 0.0 mm
12:12 26.8 °C 13.0 °C 1018.2 hPa SE 7.6 km/h 11.9 km/h 41 % 0.0 mm
12:17 27.0 °C 13.0 °C 1018.2 hPa SSE 12.2 km/h 13.0 km/h 41 % 0.0 mm
12:22 27.0 °C 13.0 °C 1018.2 hPa South 6.4 km/h 13.0 km/h 41 % 0.0 mm
12:27 27.2 °C 13.0 °C 1018.2 hPa SE 4.0 km/h 11.9 km/h 41 % 0.0 mm
12:32 27.4 °C 13.0 °C 1018.2 hPa SE 6.9 km/h 10.1 km/h 41 % 0.0 mm
12:37 27.7 °C 14.0 °C 1018.2 hPa East 6.1 km/h 11.9 km/h 42 % 0.0 mm
12:42 27.6 °C 13.0 °C 1018.2 hPa NE 7.9 km/h 11.9 km/h 41 % 0.0 mm
12:47 27.7 °C 13.0 °C 1018.2 hPa SSE 11.6 km/h 12.6 km/h 41 % 0.0 mm
12:53 27.9 °C 14.0 °C 1018.2 hPa ESE 9.7 km/h 12.6 km/h 41 % 0.0 mm
12:58 27.8 °C 13.0 °C 1018.2 hPa SE 6.1 km/h 12.6 km/h 40 % 0.0 mm
13:03 27.9 °C 13.0 °C 1018.2 hPa ESE 9.0 km/h 12.6 km/h 40 % 0.0 mm
13:08 27.7 °C 13.0 °C 1016.8 hPa SE 10.1 km/h 14.0 km/h 40 % 0.0 mm
13:13 27.6 °C 13.0 °C 1016.8 hPa East 10.1 km/h 14.3 km/h 40 % 0.0 mm
13:18 27.8 °C 13.0 °C 1016.8 hPa ENE 9.7 km/h 16.9 km/h 40 % 0.0 mm
13:23 27.5 °C 13.0 °C 1016.8 hPa East 10.1 km/h 16.9 km/h 39 % 0.0 mm
13:28 27.6 °C 13.0 °C 1016.8 hPa ESE 4.7 km/h 15.8 km/h 39 % 0.0 mm
13:33 27.8 °C 13.0 °C 1016.8 hPa East 7.9 km/h 15.4 km/h 40 % 0.0 mm
13:38 28.1 °C 13.0 °C 1016.8 hPa Calm   15.4 km/h 39 % 0.0 mm
13:43 28.1 °C 13.0 °C 1016.8 hPa ESE 7.9 km/h 13.7 km/h 39 % 0.0 mm
13:48 28.2 °C 13.0 °C 1016.8 hPa ENE 7.6 km/h 13.7 km/h 39 % 0.0 mm
13:53 28.2 °C 13.0 °C 1016.8 hPa East 10.5 km/h 16.3 km/h 39 % 0.0 mm
13:58 28.4 °C 13.0 °C 1016.8 hPa SE 5.0 km/h 16.3 km/h 39 % 0.0 mm
14:03 28.5 °C 14.0 °C 1016.8 hPa SSE 8.7 km/h 15.8 km/h 39 % 0.0 mm
14:08 28.6 °C 14.0 °C 1016.8 hPa Calm   12.6 km/h 39 % 0.0 mm
14:13 28.4 °C 13.0 °C 1016.8 hPa ENE 5.5 km/h 11.9 km/h 38 % 0.0 mm
14:18 28.4 °C 13.0 °C 1016.8 hPa NE 6.1 km/h 11.9 km/h 38 % 0.0 mm
14:23 28.6 °C 14.0 °C 1016.8 hPa NE 5.5 km/h 13.0 km/h 39 % 0.0 mm
14:28 28.6 °C 13.0 °C 1016.8 hPa East 6.4 km/h 13.0 km/h 38 % 0.0 mm
14:33 28.7 °C 13.0 °C 1016.8 hPa SE 5.8 km/h 12.6 km/h 38 % 0.0 mm
14:38 28.6 °C 14.0 °C 1016.8 hPa NNE 14.0 km/h 14.0 km/h 39 % 0.0 mm
14:44 29.0 °C 14.0 °C 1016.8 hPa ESE 4.3 km/h 14.0 km/h 39 % 0.0 mm
14:49 29.0 °C 13.0 °C 1016.8 hPa Calm   13.0 km/h 38 % 0.0 mm
14:54 28.9 °C 14.0 °C 1016.8 hPa East 15.8 km/h 15.8 km/h 39 % 0.0 mm
14:59 29.2 °C 14.0 °C 1016.8 hPa SSE 7.6 km/h 15.8 km/h 39 % 0.0 mm
15:04 29.6 °C 14.0 °C 1016.8 hPa East 2.6 km/h 10.5 km/h 39 % 0.0 mm
15:09 29.3 °C 13.0 °C 1016.8 hPa ENE 5.8 km/h 13.7 km/h 37 % 0.0 mm
15:14 29.3 °C 13.0 °C 1016.8 hPa SE 4.3 km/h 13.7 km/h 38 % 0.0 mm
15:19 29.5 °C 14.0 °C 1016.8 hPa SE 4.7 km/h 10.5 km/h 38 % 0.0 mm
15:24 29.7 °C 14.0 °C 1016.8 hPa ENE 5.8 km/h 11.9 km/h 38 % 0.0 mm
15:29 29.4 °C 13.0 °C 1016.8 hPa Calm   12.6 km/h 37 % 0.0 mm
15:34 29.3 °C 13.0 °C 1016.8 hPa ENE 6.9 km/h 14.8 km/h 37 % 0.0 mm
15:39 29.5 °C 13.0 °C 1016.8 hPa ENE 9.3 km/h 14.8 km/h 37 % 0.0 mm
15:44 29.4 °C 13.0 °C 1016.8 hPa East 1.8 km/h 12.6 km/h 37 % 0.0 mm
15:49 29.4 °C 13.0 °C 1016.8 hPa SE 12.2 km/h 15.8 km/h 37 % 0.0 mm
15:54 29.4 °C 13.0 °C 1016.8 hPa East 8.7 km/h 15.8 km/h 37 % 0.0 mm
16:04 29.7 °C 13.0 °C 1016.8 hPa ENE 6.4 km/h 14.0 km/h 37 % 0.0 mm
16:09 29.4 °C 13.0 °C 1016.1 hPa NE 9.7 km/h 14.0 km/h 36 % 0.0 mm
16:19 29.5 °C 13.0 °C 1016.1 hPa Calm   14.0 km/h 36 % 0.0 mm
16:24 29.6 °C 13.0 °C 1016.1 hPa ENE 12.6 km/h 12.6 km/h 36 % 0.0 mm
16:29 29.4 °C 13.0 °C 1016.1 hPa East 9.3 km/h 13.7 km/h 37 % 0.0 mm
16:34 29.7 °C 13.0 °C 1016.1 hPa ESE 6.4 km/h 13.7 km/h 37 % 0.0 mm
16:39 29.6 °C 13.0 °C 1016.1 hPa SSE 5.8 km/h 15.8 km/h 36 % 0.0 mm
16:44 29.8 °C 13.0 °C 1016.1 hPa SSW 1.4 km/h 15.8 km/h 37 % 0.0 mm
16:49 30.0 °C 14.0 °C 1016.1 hPa South 2.6 km/h 14.0 km/h 37 % 0.0 mm
16:54 30.1 °C 14.0 °C 1015.1 hPa Calm   14.0 km/h 37 % 0.0 mm
16:59 30.2 °C 14.0 °C 1015.1 hPa Calm   10.1 km/h 36 % 0.0 mm
17:00 30.2 °C 14.0 °C 1015.1 hPa East 8.7 km/h 10.1 km/h 36 % 0.0 mm
17:05 29.9 °C 13.0 °C 1015.1 hPa SE 9.0 km/h 11.6 km/h 36 % 0.0 mm
17:10 29.6 °C 13.0 °C 1015.1 hPa ESE 8.7 km/h 13.0 km/h 36 % 0.0 mm
17:15 29.8 °C 13.0 °C 1015.1 hPa Calm   13.0 km/h 36 % 0.0 mm
17:20 29.6 °C 13.0 °C 1015.1 hPa South 6.1 km/h 10.5 km/h 36 % 0.0 mm
17:25 29.6 °C 13.0 °C 1015.1 hPa East 12.6 km/h 12.6 km/h 37 % 0.0 mm
17:30 29.8 °C 13.0 °C 1015.1 hPa SSE 3.5 km/h 12.6 km/h 37 % 0.0 mm
17:35 29.6 °C 13.0 °C 1015.1 hPa SSE 3.5 km/h 12.6 km/h 36 % 0.0 mm
17:40 29.6 °C 13.0 °C 1015.1 hPa Calm   5.8 km/h 36 % 0.0 mm
17:45 29.5 °C 13.0 °C 1015.1 hPa Calm   7.9 km/h 36 % 0.0 mm
18:00 0.0 °C 13.0 °C 0.0 hPa East 1.4 km/h 1.4 km/h 0 % 0.0 mm
18:05 29.6 °C 13.0 °C 1014.1 hPa ESE 10.5 km/h 10.5 km/h 36 % 0.0 mm
18:10 29.8 °C 13.0 °C 1015.1 hPa ESE 2.6 km/h 10.5 km/h 36 % 0.0 mm
18:15 29.7 °C 13.0 °C 1015.1 hPa East 6.1 km/h 10.5 km/h 37 % 0.0 mm
18:21 29.9 °C 13.0 °C 1015.1 hPa East 5.8 km/h 9.0 km/h 37 % 0.0 mm
18:26 29.9 °C 13.0 °C 1015.1 hPa ESE 6.9 km/h 9.0 km/h 37 % 0.0 mm
18:31 29.7 °C 13.0 °C 1015.1 hPa NE 9.0 km/h 9.7 km/h 36 % 0.0 mm
18:36 29.5 °C 13.0 °C 1015.1 hPa East 1.8 km/h 9.7 km/h 36 % 0.0 mm
18:41 29.4 °C 13.0 °C 1015.1 hPa ESE 10.5 km/h 11.9 km/h 36 % 0.0 mm
18:46 29.5 °C 13.0 °C 1015.1 hPa SE 2.6 km/h 11.9 km/h 37 % 0.0 mm
18:51 29.6 °C 13.0 °C 1015.1 hPa East 6.1 km/h 8.7 km/h 36 % 0.0 mm
18:56 29.6 °C 13.0 °C 1015.1 hPa ENE 5.5 km/h 8.7 km/h 36 % 0.0 mm
19:01 29.4 °C 13.0 °C 1015.1 hPa Calm   9.0 km/h 36 % 0.0 mm
19:06 29.5 °C 13.0 °C 1015.1 hPa ENE 6.9 km/h 9.0 km/h 36 % 0.0 mm
19:11 29.3 °C 13.0 °C 1014.1 hPa ESE 9.3 km/h 9.3 km/h 37 % 0.0 mm
19:16 29.2 °C 13.0 °C 1014.1 hPa ESE 5.5 km/h 9.3 km/h 36 % 0.0 mm
19:21 29.1 °C 13.0 °C 1014.1 hPa East 9.3 km/h 10.5 km/h 37 % 0.0 mm
19:26 28.8 °C 13.0 °C 1014.1 hPa ENE 10.1 km/h 10.5 km/h 37 % 0.0 mm
19:31 28.7 °C 13.0 °C 1014.1 hPa East 9.3 km/h 10.1 km/h 38 % 0.0 mm
19:36 28.5 °C 13.0 °C 1015.1 hPa ENE 5.0 km/h 11.9 km/h 37 % 0.0 mm
19:41 28.3 °C 13.0 °C 1015.1 hPa NE 4.7 km/h 11.9 km/h 38 % 0.0 mm
19:46 28.2 °C 13.0 °C 1015.1 hPa East 4.7 km/h 11.9 km/h 38 % 0.0 mm
19:51 28.1 °C 13.0 °C 1014.1 hPa Calm   11.6 km/h 39 % 0.0 mm
19:57 27.9 °C 13.0 °C 1014.1 hPa East 7.2 km/h 10.1 km/h 39 % 0.0 mm
20:02 27.8 °C 13.0 °C 1014.1 hPa East 4.7 km/h 10.1 km/h 39 % 0.0 mm
20:07 27.6 °C 13.0 °C 1014.1 hPa East 9.0 km/h 10.1 km/h 39 % 0.0 mm
20:12 27.3 °C 13.0 °C 1014.1 hPa ESE 5.0 km/h 10.5 km/h 39 % 0.0 mm
20:17 27.1 °C 13.0 °C 1014.1 hPa East 8.7 km/h 10.5 km/h 40 % 0.0 mm
20:22 26.9 °C 13.0 °C 1014.1 hPa East 7.9 km/h 10.1 km/h 40 % 0.0 mm
20:27 26.7 °C 12.0 °C 1014.1 hPa Calm   9.3 km/h 40 % 0.0 mm
20:32 26.3 °C 12.0 °C 1014.1 hPa Calm   7.9 km/h 41 % 0.0 mm
20:37 26.0 °C 12.0 °C 1014.1 hPa ENE 5.5 km/h 7.6 km/h 41 % 0.0 mm
20:40 25.9 °C 12.0 °C 1014.1 hPa Calm   7.6 km/h 42 % 0.0 mm
20:45 25.7 °C 12.0 °C 1014.1 hPa Calm   6.9 km/h 42 % 0.0 mm
20:50 25.5 °C 12.0 °C 1014.1 hPa Calm   5.0 km/h 42 % 0.0 mm
20:52 25.4 °C 12.0 °C 1014.1 hPa East 1.8 km/h 5.0 km/h 42 % 0.0 mm
20:57 25.1 °C 12.0 °C 1014.1 hPa Calm   6.9 km/h 43 % 0.0 mm
21:02 24.8 °C 12.0 °C 1014.1 hPa Calm   6.9 km/h 44 % 0.0 mm
21:07 24.6 °C 12.0 °C 1014.1 hPa Calm   5.0 km/h 44 % 0.0 mm
21:12 24.3 °C 12.0 °C 1014.1 hPa Calm   1.8 km/h 45 % 0.0 mm
21:17 24.0 °C 12.0 °C 1014.1 hPa Calm   1.8 km/h 46 % 0.0 mm
21:22 23.8 °C 12.0 °C 1015.1 hPa Calm     47 % 0.0 mm
21:27 23.6 °C 12.0 °C 1015.1 hPa Calm     47 % 0.0 mm
21:32 23.3 °C 12.0 °C 1015.1 hPa Calm     48 % 0.0 mm
21:37 23.1 °C 12.0 °C 1015.1 hPa Calm     49 % 0.0 mm
21:42 22.9 °C 12.0 °C 1015.1 hPa Calm     49 % 0.0 mm
21:47 22.7 °C 12.0 °C 1015.1 hPa Calm     50 % 0.0 mm
21:52 22.5 °C 12.0 °C 1015.1 hPa Calm     51 % 0.0 mm
21:57 22.4 °C 12.0 °C 1015.1 hPa Calm     51 % 0.0 mm
22:02 22.2 °C 12.0 °C 1015.1 hPa Calm   2.1 km/h 52 % 0.0 mm
22:07 22.0 °C 12.0 °C 1015.1 hPa Calm   2.1 km/h 53 % 0.0 mm
22:08 22.0 °C 12.0 °C 1015.1 hPa ESE 4.3 km/h 4.3 km/h 53 % 0.0 mm
22:13 21.8 °C 12.0 °C 1015.1 hPa Calm   4.7 km/h 53 % 0.0 mm
22:18 21.6 °C 12.0 °C 1015.1 hPa Calm   4.7 km/h 54 % 0.0 mm
22:23 21.4 °C 12.0 °C 1015.1 hPa Calm   2.1 km/h 54 % 0.0 mm
22:28 21.2 °C 12.0 °C 1015.1 hPa Calm   3.2 km/h 55 % 0.0 mm
22:33 20.9 °C 12.0 °C 1015.1 hPa Calm   3.2 km/h 56 % 0.0 mm
22:38 20.8 °C 12.0 °C 1015.1 hPa Calm     57 % 0.0 mm
22:43 20.7 °C 12.0 °C 1015.1 hPa Calm     57 % 0.0 mm
22:48 20.6 °C 12.0 °C 1015.1 hPa Calm   1.4 km/h 58 % 0.0 mm
22:53 20.4 °C 12.0 °C 1015.1 hPa Calm   2.1 km/h 58 % 0.0 mm
22:58 20.2 °C 12.0 °C 1015.1 hPa Calm   2.1 km/h 59 % 0.0 mm
23:03 20.0 °C 12.0 °C 1015.1 hPa Calm     59 % 0.0 mm
23:08 19.9 °C 12.0 °C 1015.1 hPa Calm     60 % 0.0 mm
23:13 19.7 °C 12.0 °C 1015.1 hPa Calm   3.2 km/h 61 % 0.0 mm
23:18 19.5 °C 12.0 °C 1015.1 hPa Calm   3.2 km/h 61 % 0.0 mm
23:23 19.4 °C 12.0 °C 1015.1 hPa Calm     62 % 0.0 mm
23:28 19.1 °C 12.0 °C 1015.1 hPa Calm     63 % 0.0 mm
23:33 18.9 °C 12.0 °C 1015.1 hPa Calm     64 % 0.0 mm
23:38 18.8 °C 12.0 °C 1015.1 hPa Calm     64 % 0.0 mm
23:43 18.7 °C 12.0 °C 1015.1 hPa Calm     65 % 0.0 mm
23:48 18.5 °C 12.0 °C 1015.1 hPa Calm     65 % 0.0 mm
23:53 18.4 °C 12.0 °C 1015.1 hPa Calm     66 % 0.0 mm
23:58 18.1 °C 12.0 °C 1015.1 hPa Calm     67 % 0.0 mm
Le Gheer Warneton
Courtoisie de Weather Underground - 2.25 mb

Mise a jour : 17-12-17 03:30:12
Généré par Cumulus 1.9.4 (1099)